createdAt,value
2017-05-10T00:00:36.251Z,0
2017-05-10T00:01:16.724Z,0
2017-05-10T00:01:57.212Z,0
2017-05-10T00:02:37.681Z,0
2017-05-10T00:03:18.213Z,0
2017-05-10T00:03:58.656Z,0
2017-05-10T00:04:39.166Z,0
2017-05-10T00:05:19.603Z,0
2017-05-10T00:06:00.111Z,0
2017-05-10T00:06:40.594Z,0
2017-05-10T00:07:21.087Z,0
2017-05-10T00:08:01.549Z,0
2017-05-10T00:08:42.007Z,0
2017-05-10T00:09:22.507Z,0
2017-05-10T00:10:03.011Z,0
2017-05-10T00:10:43.480Z,0
2017-05-10T00:11:23.965Z,0
2017-05-10T00:12:04.427Z,0
2017-05-10T00:12:44.919Z,0
2017-05-10T00:13:25.398Z,0
2017-05-10T00:14:05.867Z,0
2017-05-10T00:14:46.368Z,0
2017-05-10T00:15:26.859Z,0
2017-05-10T00:16:07.336Z,0
2017-05-10T00:16:47.786Z,0
2017-05-10T00:17:28.302Z,0
2017-05-10T00:18:08.765Z,0
2017-05-10T00:18:49.237Z,0
2017-05-10T00:19:29.708Z,0
2017-05-10T00:20:10.198Z,0
2017-05-10T00:20:50.669Z,0
2017-05-10T00:21:31.133Z,0
2017-05-10T00:22:11.635Z,0
2017-05-10T00:22:52.108Z,0
2017-05-10T00:23:32.577Z,0
2017-05-10T00:24:13.061Z,0
2017-05-10T00:24:53.560Z,0
2017-05-10T00:25:34.041Z,0
2017-05-10T00:26:14.499Z,0
2017-05-10T00:26:54.976Z,0
2017-05-10T00:27:35.487Z,0
2017-05-10T00:28:15.943Z,0
2017-05-10T00:28:56.401Z,0
2017-05-10T00:29:36.889Z,0
2017-05-10T00:30:17.360Z,0
2017-05-10T00:30:57.854Z,0
2017-05-10T00:31:38.313Z,0
2017-05-10T00:32:18.774Z,0
2017-05-10T00:32:59.381Z,0
2017-05-10T00:33:39.849Z,0
2017-05-10T00:34:20.337Z,0
2017-05-10T00:35:00.815Z,0
2017-05-10T00:35:41.308Z,0
2017-05-10T00:36:21.775Z,0
2017-05-10T00:37:02.233Z,0
2017-05-10T00:37:42.739Z,0
2017-05-10T00:38:23.242Z,0
2017-05-10T00:39:03.735Z,0
2017-05-10T00:39:44.266Z,0
2017-05-10T00:40:24.736Z,0
2017-05-10T00:41:05.219Z,0
2017-05-10T00:41:45.724Z,0
2017-05-10T00:42:26.184Z,0
2017-05-10T00:43:06.679Z,0
2017-05-10T00:43:47.161Z,0
2017-05-10T00:44:27.660Z,0
2017-05-10T00:45:08.133Z,0
2017-05-10T00:45:48.602Z,0
2017-05-10T00:46:29.087Z,0
2017-05-10T00:47:09.541Z,0
2017-05-10T00:47:50.009Z,0
2017-05-10T00:48:30.496Z,0
2017-05-10T00:49:10.970Z,0
2017-05-10T00:49:51.473Z,0
2017-05-10T00:50:31.921Z,0
2017-05-10T00:51:12.433Z,0
2017-05-10T00:51:52.907Z,0
2017-05-10T00:52:33.440Z,0
2017-05-10T00:53:13.870Z,0
2017-05-10T00:53:54.343Z,0
2017-05-10T00:54:34.841Z,0
2017-05-10T00:55:15.314Z,0
2017-05-10T00:55:55.784Z,0
2017-05-10T00:56:36.260Z,0
2017-05-10T00:57:16.765Z,0
2017-05-10T00:57:57.230Z,0
2017-05-10T00:58:37.697Z,0
2017-05-10T00:59:18.189Z,0
2017-05-10T00:59:58.649Z,0
2017-05-10T01:00:39.147Z,0
2017-05-10T01:01:19.654Z,0
2017-05-10T01:02:00.113Z,0
2017-05-10T01:02:40.591Z,0
2017-05-10T01:03:21.081Z,0
2017-05-10T01:04:01.583Z,0
2017-05-10T01:04:42.056Z,0
2017-05-10T01:05:22.547Z,0
2017-05-10T01:06:03.012Z,0
2017-05-10T01:06:43.510Z,0
2017-05-10T01:07:23.987Z,0
2017-05-10T01:08:04.479Z,0
2017-05-10T01:08:44.962Z,0
2017-05-10T01:09:25.434Z,0
2017-05-10T01:10:05.916Z,0
2017-05-10T01:10:46.400Z,0
2017-05-10T01:11:26.890Z,0
2017-05-10T01:12:07.401Z,0
2017-05-10T01:12:47.851Z,0
2017-05-10T01:13:28.349Z,0
2017-05-10T01:14:08.818Z,0
2017-05-10T01:14:49.309Z,0
2017-05-10T01:15:29.801Z,0
2017-05-10T01:16:10.277Z,0
2017-05-10T01:16:50.740Z,0
2017-05-10T01:17:31.229Z,0
2017-05-10T01:18:11.706Z,0
2017-05-10T01:18:52.198Z,0
2017-05-10T01:19:32.669Z,0
2017-05-10T01:20:13.135Z,0
2017-05-10T01:20:53.642Z,0
2017-05-10T01:21:34.105Z,0
2017-05-10T01:22:14.578Z,0
2017-05-10T01:22:55.072Z,0
2017-05-10T01:23:35.543Z,0
2017-05-10T01:24:16.032Z,0
2017-05-10T01:24:56.534Z,0
2017-05-10T01:25:37.002Z,0
2017-05-10T01:26:17.471Z,0
2017-05-10T01:26:57.952Z,0
2017-05-10T01:27:38.472Z,0
2017-05-10T01:28:18.950Z,0
2017-05-10T01:28:59.437Z,0
2017-05-10T01:29:39.936Z,0
2017-05-10T01:30:20.378Z,0
2017-05-10T01:31:00.868Z,0
2017-05-10T01:31:41.359Z,0
2017-05-10T01:32:21.827Z,0
2017-05-10T01:33:02.268Z,0
2017-05-10T01:33:42.732Z,0
2017-05-10T01:34:23.206Z,0
2017-05-10T01:35:03.691Z,0
2017-05-10T01:35:44.184Z,0
2017-05-10T01:36:24.666Z,0
2017-05-10T01:37:05.147Z,0
2017-05-10T01:37:45.629Z,0
2017-05-10T01:38:26.128Z,0
2017-05-10T01:39:06.602Z,0
2017-05-10T01:39:47.079Z,0
2017-05-10T01:40:27.588Z,0
2017-05-10T01:41:08.071Z,0
2017-05-10T01:41:48.541Z,0
2017-05-10T01:42:29.037Z,0
2017-05-10T01:43:09.588Z,0
2017-05-10T01:43:50.076Z,0
2017-05-10T01:44:30.574Z,0
2017-05-10T01:45:11.055Z,0
2017-05-10T01:45:51.604Z,0
2017-05-10T01:46:32.028Z,0
2017-05-10T01:47:12.520Z,0
2017-05-10T01:47:53.016Z,0
2017-05-10T01:48:33.503Z,0
2017-05-10T01:49:14.013Z,0
2017-05-10T01:49:54.484Z,0
2017-05-10T01:50:34.973Z,0
2017-05-10T01:51:15.462Z,0
2017-05-10T01:51:55.914Z,0
2017-05-10T01:52:36.407Z,0
2017-05-10T01:53:16.951Z,0
2017-05-10T01:53:57.405Z,0
2017-05-10T01:54:37.879Z,0
2017-05-10T01:55:18.356Z,0
2017-05-10T01:55:58.841Z,0
2017-05-10T01:56:39.303Z,0
2017-05-10T01:57:19.805Z,0
2017-05-10T01:58:00.293Z,0
2017-05-10T01:58:40.726Z,0
2017-05-10T01:59:21.204Z,0
2017-05-10T02:00:01.712Z,0
2017-05-10T02:00:42.229Z,0
2017-05-10T02:01:22.726Z,0
2017-05-10T02:02:03.227Z,0
2017-05-10T02:02:43.672Z,0
2017-05-10T02:03:24.151Z,0
2017-05-10T02:04:04.638Z,0
2017-05-10T02:04:45.122Z,0
2017-05-10T02:05:25.614Z,0
2017-05-10T02:06:06.100Z,0
2017-05-10T02:06:46.571Z,0
2017-05-10T02:07:27.070Z,0
2017-05-10T02:08:07.556Z,0
2017-05-10T02:08:48.062Z,0
2017-05-10T02:09:28.544Z,0
2017-05-10T02:10:09.009Z,0
2017-05-10T02:10:49.455Z,0
2017-05-10T02:11:29.943Z,0
2017-05-10T02:12:10.422Z,0
2017-05-10T02:12:50.964Z,0
2017-05-10T02:13:31.397Z,0
2017-05-10T02:14:11.878Z,0
2017-05-10T02:14:52.379Z,0
2017-05-10T02:15:32.837Z,0
2017-05-10T02:16:13.328Z,0
2017-05-10T02:16:53.818Z,0
2017-05-10T02:17:34.300Z,0
2017-05-10T02:18:14.807Z,0
2017-05-10T02:18:55.291Z,0
2017-05-10T02:19:35.733Z,0
2017-05-10T02:20:16.217Z,0
2017-05-10T02:20:56.738Z,0
2017-05-10T02:21:37.223Z,0
2017-05-10T02:22:17.682Z,0
2017-05-10T02:22:58.197Z,0
2017-05-10T02:23:38.647Z,0
2017-05-10T02:24:19.128Z,0
2017-05-10T02:24:59.608Z,0
2017-05-10T02:25:40.099Z,0
2017-05-10T02:26:20.582Z,0
2017-05-10T02:27:01.051Z,0
2017-05-10T02:27:41.571Z,0
2017-05-10T02:28:22.081Z,0
2017-05-10T02:29:02.562Z,0
2017-05-10T02:29:43.065Z,0
2017-05-10T02:30:23.654Z,0
2017-05-10T02:31:04.121Z,0
2017-05-10T02:31:44.593Z,0
2017-05-10T02:32:25.102Z,0
2017-05-10T02:33:05.578Z,0
2017-05-10T02:33:46.070Z,0
2017-05-10T02:34:26.535Z,0
2017-05-10T02:35:07.023Z,0
2017-05-10T02:35:47.493Z,0
2017-05-10T02:36:27.948Z,0
2017-05-10T02:37:08.457Z,0
2017-05-10T02:37:48.923Z,0
2017-05-10T02:38:29.437Z,0
2017-05-10T02:39:09.948Z,0
2017-05-10T02:39:50.391Z,0
2017-05-10T02:40:30.897Z,0
2017-05-10T02:41:11.370Z,0
2017-05-10T02:41:51.809Z,0
2017-05-10T02:42:32.283Z,0
2017-05-10T02:43:12.765Z,0
2017-05-10T02:43:53.236Z,0
2017-05-10T02:44:33.766Z,0
2017-05-10T02:45:14.244Z,0
2017-05-10T02:45:54.708Z,0
2017-05-10T02:46:35.197Z,0
2017-05-10T02:47:15.667Z,0
2017-05-10T02:47:56.133Z,0
2017-05-10T02:48:36.616Z,0
2017-05-10T02:49:17.072Z,0
2017-05-10T02:49:57.547Z,0
2017-05-10T02:50:38.015Z,0
2017-05-10T02:51:18.523Z,0
2017-05-10T02:51:59.015Z,0
2017-05-10T02:52:39.465Z,0
2017-05-10T02:53:19.957Z,0
2017-05-10T02:54:00.422Z,0
2017-05-10T02:54:40.954Z,0
2017-05-10T02:55:21.408Z,0
2017-05-10T02:56:01.935Z,0
2017-05-10T02:56:42.410Z,0
2017-05-10T02:57:22.873Z,0
2017-05-10T02:58:03.376Z,0
2017-05-10T02:58:43.833Z,0
2017-05-10T02:59:24.303Z,0
2017-05-10T03:00:04.804Z,0
2017-05-10T03:00:45.302Z,0
2017-05-10T03:01:25.809Z,0
2017-05-10T03:02:06.289Z,0
2017-05-10T03:02:46.735Z,0
2017-05-10T03:03:27.225Z,0
2017-05-10T03:04:07.735Z,0
2017-05-10T03:04:48.198Z,0
2017-05-10T03:05:28.697Z,0
2017-05-10T03:06:09.185Z,0
2017-05-10T03:06:49.668Z,0
2017-05-10T03:07:30.142Z,0
2017-05-10T03:08:10.646Z,0
2017-05-10T03:08:51.108Z,0
2017-05-10T03:09:31.591Z,0
2017-05-10T03:10:12.050Z,0
2017-05-10T03:10:52.576Z,0
2017-05-10T03:11:33.004Z,0
2017-05-10T03:12:13.502Z,0
2017-05-10T03:12:53.969Z,0
2017-05-10T03:13:34.456Z,0
2017-05-10T03:14:14.957Z,0
2017-05-10T03:14:55.436Z,0
2017-05-10T03:15:35.908Z,0
2017-05-10T03:16:16.417Z,0
2017-05-10T03:16:56.887Z,0
2017-05-10T03:17:37.383Z,0
2017-05-10T03:18:17.869Z,0
2017-05-10T03:18:58.334Z,0
2017-05-10T03:19:38.815Z,0
2017-05-10T03:20:19.313Z,0
2017-05-10T03:20:59.815Z,0
2017-05-10T03:21:40.309Z,0
2017-05-10T03:22:20.768Z,0
2017-05-10T03:23:01.239Z,0
2017-05-10T03:23:41.721Z,0
2017-05-10T03:24:22.212Z,0
2017-05-10T03:25:02.687Z,0
2017-05-10T03:25:43.157Z,0
2017-05-10T03:26:23.664Z,0
2017-05-10T03:27:04.161Z,0
2017-05-10T03:27:44.665Z,0
2017-05-10T03:28:25.138Z,0
2017-05-10T03:29:05.626Z,5
2017-05-10T03:29:46.105Z,5
2017-05-10T03:30:26.566Z,5
2017-05-10T03:31:07.069Z,5
2017-05-10T03:31:47.552Z,5
2017-05-10T03:32:28.076Z,5
2017-05-10T03:33:08.532Z,5
2017-05-10T03:33:49.003Z,5
2017-05-10T03:34:29.479Z,5
2017-05-10T03:35:09.940Z,5
2017-05-10T03:35:50.431Z,5
2017-05-10T03:36:30.929Z,5
2017-05-10T03:37:11.382Z,5
2017-05-10T03:37:51.867Z,5
2017-05-10T03:38:32.328Z,5
2017-05-10T03:39:12.823Z,5
2017-05-10T03:39:53.298Z,5
2017-05-10T03:40:33.790Z,5
2017-05-10T03:41:14.265Z,5
2017-05-10T03:41:54.754Z,5
2017-05-10T03:42:35.214Z,5
2017-05-10T03:43:15.687Z,5
2017-05-10T03:43:56.195Z,5
2017-05-10T03:44:36.650Z,10
2017-05-10T03:45:17.118Z,10
2017-05-10T03:45:57.600Z,10
2017-05-10T03:46:38.088Z,10
2017-05-10T03:47:18.622Z,10
2017-05-10T03:47:59.107Z,10
2017-05-10T03:48:39.558Z,10
2017-05-10T03:49:20.060Z,10
2017-05-10T03:50:00.567Z,10
2017-05-10T03:50:41.053Z,10
2017-05-10T03:51:21.496Z,10
2017-05-10T03:52:01.972Z,10
2017-05-10T03:52:42.430Z,10
2017-05-10T03:53:22.907Z,10
2017-05-10T03:54:03.435Z,10
2017-05-10T03:54:43.919Z,5
2017-05-10T03:55:24.372Z,10
2017-05-10T03:56:04.847Z,10
2017-05-10T03:56:45.318Z,10
2017-05-10T03:57:25.808Z,15
2017-05-10T03:58:06.279Z,15
2017-05-10T03:58:46.765Z,15
2017-05-10T03:59:27.217Z,15
2017-05-10T04:00:07.689Z,20
2017-05-10T04:00:48.165Z,20
2017-05-10T04:01:28.643Z,20
2017-05-10T04:02:09.114Z,25
2017-05-10T04:02:49.615Z,25
2017-05-10T04:03:30.062Z,30
2017-05-10T04:04:10.540Z,30
2017-05-10T04:04:51.015Z,30
2017-05-10T04:05:31.494Z,35
2017-05-10T04:06:11.978Z,35
2017-05-10T04:06:52.486Z,40
2017-05-10T04:07:32.945Z,40
2017-05-10T04:08:13.431Z,40
2017-05-10T04:08:53.897Z,45
2017-05-10T04:09:34.389Z,45
2017-05-10T04:10:14.846Z,45
2017-05-10T04:10:55.317Z,45
2017-05-10T04:11:35.778Z,45
2017-05-10T04:12:16.278Z,50
2017-05-10T04:12:56.769Z,50
2017-05-10T04:13:37.261Z,50
2017-05-10T04:16:07.055Z,55
2017-05-10T04:16:47.216Z,55
2017-05-10T04:17:27.659Z,55
2017-05-10T04:18:08.941Z,55
2017-05-10T04:18:49.450Z,55
2017-05-10T04:19:29.949Z,60
2017-05-10T04:20:10.339Z,60
2017-05-10T04:20:51.061Z,60
2017-05-10T04:21:31.632Z,60
2017-05-10T04:22:12.134Z,55
2017-05-10T04:22:52.824Z,55
2017-05-10T04:23:33.255Z,50
2017-05-10T04:24:13.945Z,50
2017-05-10T04:24:54.450Z,45
2017-05-10T04:25:34.914Z,45
2017-05-10T04:26:15.441Z,40
2017-05-10T04:26:55.884Z,40
2017-05-10T04:27:36.344Z,40
2017-05-10T04:28:16.835Z,40
2017-05-10T04:28:57.328Z,40
2017-05-10T04:29:37.880Z,40
2017-05-10T04:30:18.270Z,35
2017-05-10T04:30:58.776Z,30
2017-05-10T04:31:39.278Z,25
2017-05-10T04:32:19.729Z,20
2017-05-10T04:33:00.219Z,20
2017-05-10T04:33:40.696Z,20
2017-05-10T04:34:21.171Z,15
2017-05-10T04:35:01.690Z,15
2017-05-10T04:35:42.183Z,15
2017-05-10T04:36:22.651Z,15
2017-05-10T04:37:03.122Z,20
2017-05-10T04:37:43.642Z,20
2017-05-10T04:38:24.098Z,25
2017-05-10T04:39:04.571Z,25
2017-05-10T04:39:45.138Z,25
2017-05-10T04:40:25.628Z,25
2017-05-10T04:41:06.118Z,20
2017-05-10T04:41:46.700Z,25
2017-05-10T04:42:27.210Z,30
2017-05-10T04:43:07.952Z,40
2017-05-10T04:43:48.565Z,45
2017-05-10T04:44:29.098Z,40
2017-05-10T04:45:09.498Z,35
2017-05-10T04:45:50.077Z,35
2017-05-10T04:46:30.515Z,35
2017-05-10T04:47:11.039Z,35
2017-05-10T04:47:51.537Z,40
2017-05-10T04:48:32.010Z,40
2017-05-10T04:49:12.540Z,35
2017-05-10T04:49:53.072Z,25
2017-05-10T04:50:33.589Z,30
2017-05-10T04:51:14.015Z,30
2017-05-10T04:51:54.495Z,35
2017-05-10T04:52:34.999Z,40
2017-05-10T04:53:15.539Z,50
2017-05-10T04:53:56.009Z,60
2017-05-10T04:54:36.563Z,60
2017-05-10T04:55:17.057Z,65
2017-05-10T04:55:57.531Z,65
2017-05-10T04:56:38.103Z,65
2017-05-10T04:57:18.604Z,65
2017-05-10T04:57:59.171Z,70
2017-05-10T04:58:39.666Z,75
2017-05-10T04:59:20.153Z,80
2017-05-10T05:00:00.632Z,80
2017-05-10T05:00:41.145Z,85
2017-05-10T05:01:21.671Z,90
2017-05-10T05:02:02.146Z,90
2017-05-10T05:02:42.623Z,90
2017-05-10T05:03:23.137Z,90
2017-05-10T05:04:03.724Z,95
2017-05-10T05:04:44.173Z,100
2017-05-10T05:05:24.643Z,100
2017-05-10T05:06:05.059Z,100
2017-05-10T05:06:45.535Z,95
2017-05-10T05:07:26.050Z,95
2017-05-10T05:08:06.521Z,90
2017-05-10T05:08:47.026Z,85
2017-05-10T05:09:27.510Z,80
2017-05-10T05:10:07.970Z,75
2017-05-10T05:10:48.402Z,70
2017-05-10T05:11:28.910Z,65
2017-05-10T05:12:09.362Z,55
2017-05-10T05:12:49.789Z,60
2017-05-10T05:13:30.297Z,65
2017-05-10T05:14:10.778Z,70
2017-05-10T05:14:51.291Z,80
2017-05-10T05:15:31.729Z,90
2017-05-10T05:16:12.196Z,100
2017-05-10T05:16:52.729Z,105
2017-05-10T05:17:33.158Z,110
2017-05-10T05:18:13.642Z,105
2017-05-10T05:18:54.145Z,95
2017-05-10T05:19:34.583Z,90
2017-05-10T05:20:15.067Z,90
2017-05-10T05:20:55.538Z,75
2017-05-10T05:21:36.028Z,55
2017-05-10T05:22:16.526Z,50
2017-05-10T05:22:56.996Z,50
2017-05-10T05:23:37.422Z,60
2017-05-10T05:24:17.895Z,70
2017-05-10T05:24:58.425Z,65
2017-05-10T05:25:38.902Z,70
2017-05-10T05:26:19.352Z,70
2017-05-10T05:26:59.838Z,70
2017-05-10T05:27:40.267Z,75
2017-05-10T05:28:20.768Z,80
2017-05-10T05:29:01.222Z,85
2017-05-10T05:29:41.735Z,90
2017-05-10T05:30:22.185Z,105
2017-05-10T05:31:02.699Z,115
2017-05-10T05:31:43.169Z,135
2017-05-10T05:32:23.714Z,155
2017-05-10T05:33:04.169Z,170
2017-05-10T05:33:44.661Z,170
2017-05-10T05:34:25.145Z,170
2017-05-10T05:35:05.628Z,175
2017-05-10T05:35:46.035Z,175
2017-05-10T05:36:26.502Z,175
2017-05-10T05:37:07.147Z,175
2017-05-10T05:37:47.629Z,175
2017-05-10T05:38:28.058Z,170
2017-05-10T05:39:08.541Z,175
2017-05-10T05:39:49.016Z,185
2017-05-10T05:40:29.616Z,185
2017-05-10T05:41:10.034Z,185
2017-05-10T05:41:50.614Z,185
2017-05-10T05:42:31.233Z,185
2017-05-10T05:43:11.771Z,185
2017-05-10T05:43:52.276Z,190
2017-05-10T05:44:32.852Z,200
2017-05-10T05:45:13.637Z,195
2017-05-10T05:45:54.807Z,190
2017-05-10T05:46:35.106Z,190
2017-05-10T05:47:15.619Z,185
2017-05-10T05:47:56.235Z,185
2017-05-10T05:48:36.749Z,180
2017-05-10T05:49:17.242Z,180
2017-05-10T05:49:57.740Z,180
2017-05-10T05:50:38.312Z,175
2017-05-10T05:51:18.832Z,175
2017-05-10T05:51:59.286Z,175
2017-05-10T05:52:39.786Z,175
2017-05-10T05:53:20.279Z,170
2017-05-10T05:54:00.730Z,170
2017-05-10T05:54:41.172Z,155
2017-05-10T05:55:21.714Z,155
2017-05-10T05:56:02.186Z,175
2017-05-10T05:56:42.697Z,180
2017-05-10T05:57:23.163Z,180
2017-05-10T05:58:03.658Z,185
2017-05-10T05:58:44.253Z,190
2017-05-10T05:59:24.723Z,185
2017-05-10T06:00:05.217Z,180
2017-05-10T06:00:45.680Z,175
2017-05-10T06:01:26.136Z,170
2017-05-10T06:02:06.615Z,175
2017-05-10T06:02:47.123Z,170
2017-05-10T06:03:27.621Z,170
2017-05-10T06:04:08.118Z,175
2017-05-10T06:04:48.659Z,180
2017-05-10T06:05:29.130Z,190
2017-05-10T06:06:09.676Z,200
2017-05-10T06:06:50.222Z,210
2017-05-10T06:07:30.664Z,215
2017-05-10T06:08:11.126Z,230
2017-05-10T06:08:51.627Z,230
2017-05-10T06:09:32.055Z,235
2017-05-10T06:10:12.561Z,235
2017-05-10T06:10:53.068Z,235
2017-05-10T06:11:33.591Z,235
2017-05-10T06:12:14.032Z,240
2017-05-10T06:12:54.501Z,240
2017-05-10T06:13:34.946Z,245
2017-05-10T06:14:15.473Z,245
2017-05-10T06:14:55.943Z,240
2017-05-10T06:15:36.457Z,240
2017-05-10T06:16:16.905Z,245
2017-05-10T06:16:57.390Z,245
2017-05-10T06:17:37.842Z,260
2017-05-10T06:18:18.332Z,270
2017-05-10T06:18:58.867Z,280
2017-05-10T06:19:39.353Z,280
2017-05-10T06:20:19.794Z,275
2017-05-10T06:21:00.296Z,275
2017-05-10T06:21:40.789Z,290
2017-05-10T06:22:21.253Z,290
2017-05-10T06:23:01.759Z,290
2017-05-10T06:23:42.232Z,300
2017-05-10T06:24:22.778Z,310
2017-05-10T06:25:03.265Z,315
2017-05-10T06:25:43.753Z,315
2017-05-10T06:26:24.266Z,305
2017-05-10T06:27:04.802Z,300
2017-05-10T06:27:45.280Z,305
2017-05-10T06:28:25.720Z,305
2017-05-10T06:29:06.269Z,300
2017-05-10T06:29:46.700Z,285
2017-05-10T06:30:27.156Z,285
2017-05-10T06:31:07.631Z,280
2017-05-10T06:31:48.193Z,275
2017-05-10T06:32:28.641Z,260
2017-05-10T06:33:09.107Z,245
2017-05-10T06:33:49.617Z,250
2017-05-10T06:34:30.123Z,265
2017-05-10T06:35:10.618Z,275
2017-05-10T06:35:51.119Z,280
2017-05-10T06:36:31.552Z,290
2017-05-10T06:37:12.045Z,305
2017-05-10T06:37:52.565Z,310
2017-05-10T06:38:32.985Z,305
2017-05-10T06:39:13.629Z,305
2017-05-10T06:39:54.045Z,295
2017-05-10T06:40:34.535Z,280
2017-05-10T06:41:15.160Z,270
2017-05-10T06:41:55.613Z,265
2017-05-10T06:42:36.080Z,255
2017-05-10T06:43:20.351Z,240
2017-05-10T06:44:00.394Z,235
2017-05-10T06:44:40.892Z,235
2017-05-10T06:45:21.334Z,220
2017-05-10T06:46:01.777Z,205
2017-05-10T06:46:42.308Z,195
2017-05-10T06:47:22.772Z,190
2017-05-10T06:48:03.251Z,185
2017-05-10T06:48:43.742Z,185
2017-05-10T06:49:24.529Z,190
2017-05-10T06:50:05.104Z,215
2017-05-10T06:50:45.544Z,225
2017-05-10T06:51:26.036Z,240
2017-05-10T06:52:06.488Z,250
2017-05-10T06:52:46.967Z,240
2017-05-10T06:53:27.466Z,225
2017-05-10T06:54:08.002Z,215
2017-05-10T06:54:48.515Z,230
2017-05-10T06:55:29.010Z,255
2017-05-10T06:56:09.613Z,235
2017-05-10T06:56:50.223Z,230
2017-05-10T06:57:30.816Z,210
2017-05-10T06:58:11.309Z,210
2017-05-10T06:58:51.767Z,225
2017-05-10T06:59:32.260Z,260
2017-05-10T07:00:12.775Z,275
2017-05-10T07:00:53.298Z,255
2017-05-10T07:01:33.762Z,225
2017-05-10T07:02:14.232Z,215
2017-05-10T07:02:54.945Z,220
2017-05-10T07:03:36.105Z,220
2017-05-10T07:04:17.319Z,235
2017-05-10T07:04:58.329Z,250
2017-05-10T07:05:39.320Z,265
2017-05-10T07:06:20.050Z,295
2017-05-10T07:07:00.541Z,345
2017-05-10T07:07:41.072Z,340
2017-05-10T07:08:21.611Z,285
2017-05-10T07:09:02.162Z,270
2017-05-10T07:09:42.744Z,265
2017-05-10T07:10:23.235Z,255
2017-05-10T07:11:03.703Z,250
2017-05-10T07:11:44.209Z,250
2017-05-10T07:12:24.679Z,255
2017-05-10T07:13:05.240Z,245
2017-05-10T07:13:45.774Z,260
2017-05-10T07:14:26.205Z,260
2017-05-10T07:15:06.665Z,260
2017-05-10T07:15:48.042Z,260
2017-05-10T07:16:28.567Z,260
2017-05-10T07:17:09.025Z,250
2017-05-10T07:17:49.761Z,235
2017-05-10T07:18:30.253Z,230
2017-05-10T07:19:10.790Z,225
2017-05-10T07:19:51.400Z,215
2017-05-10T07:20:31.797Z,220
2017-05-10T07:21:12.256Z,230
2017-05-10T07:21:52.732Z,235
2017-05-10T07:22:33.224Z,265
2017-05-10T07:23:13.805Z,265
2017-05-10T07:23:54.168Z,280
2017-05-10T07:24:34.676Z,285
2017-05-10T07:25:16.005Z,330
2017-05-10T07:25:56.819Z,355
2017-05-10T07:26:37.400Z,325
2017-05-10T07:27:17.897Z,340
2017-05-10T07:28:05.438Z,355
2017-05-10T07:28:45.802Z,380
2017-05-10T07:29:26.422Z,365
2017-05-10T07:30:07.522Z,320
2017-05-10T07:30:48.038Z,325
2017-05-10T07:31:28.884Z,350
2017-05-10T07:32:09.364Z,350
2017-05-10T07:32:49.918Z,335
2017-05-10T07:33:30.438Z,335
2017-05-10T07:34:10.966Z,345
2017-05-10T07:34:51.480Z,355
2017-05-10T07:35:32.225Z,360
2017-05-10T07:36:12.744Z,365
2017-05-10T07:36:53.186Z,365
2017-05-10T07:37:33.773Z,360
2017-05-10T07:38:14.223Z,360
2017-05-10T07:38:54.982Z,360
2017-05-10T07:39:35.496Z,355
2017-05-10T07:40:16.074Z,345
2017-05-10T07:40:56.555Z,345
2017-05-10T07:41:37.057Z,335
2017-05-10T07:42:17.534Z,330
2017-05-10T07:42:57.978Z,320
2017-05-10T07:43:38.633Z,310
2017-05-10T07:44:19.249Z,305
2017-05-10T07:44:59.716Z,305
2017-05-10T07:45:40.266Z,305
2017-05-10T07:46:20.660Z,295
2017-05-10T07:47:01.171Z,290
2017-05-10T07:47:41.674Z,290
2017-05-10T07:48:22.381Z,295
2017-05-10T07:49:02.742Z,295
2017-05-10T07:49:43.243Z,295
2017-05-10T07:50:23.721Z,300
2017-05-10T07:51:04.252Z,305
2017-05-10T07:51:44.732Z,305
2017-05-10T07:52:26.018Z,310
2017-05-10T07:53:05.684Z,315
2017-05-10T07:53:46.161Z,325
2017-05-10T07:54:26.675Z,330
2017-05-10T07:55:07.537Z,335
2017-05-10T07:55:48.031Z,350
2017-05-10T07:56:28.725Z,355
2017-05-10T07:57:09.201Z,360
2017-05-10T07:57:49.709Z,390
2017-05-10T07:58:30.324Z,415
2017-05-10T07:59:10.781Z,425
2017-05-10T07:59:51.205Z,425
2017-05-10T08:00:31.895Z,445
2017-05-10T08:01:12.382Z,465
2017-05-10T08:01:52.899Z,490
2017-05-10T08:02:33.329Z,500
2017-05-10T08:03:13.787Z,495
2017-05-10T08:03:54.439Z,490
2017-05-10T08:04:35.756Z,500
2017-05-10T08:05:16.298Z,485
2017-05-10T08:05:56.990Z,445
2017-05-10T08:06:37.627Z,400
2017-05-10T08:07:18.261Z,390
2017-05-10T08:07:58.919Z,400
2017-05-10T08:08:39.498Z,360
2017-05-10T08:09:19.948Z,320
2017-05-10T08:10:00.426Z,305
2017-05-10T08:10:40.968Z,300
2017-05-10T08:11:21.426Z,315
2017-05-10T08:12:01.880Z,300
2017-05-10T08:12:42.522Z,275
2017-05-10T08:13:24.153Z,270
2017-05-10T08:14:04.688Z,255
2017-05-10T08:14:45.210Z,245
2017-05-10T08:15:25.641Z,235
2017-05-10T08:16:06.218Z,225
2017-05-10T08:16:46.650Z,215
2017-05-10T08:17:27.185Z,185
2017-05-10T08:18:07.698Z,160
2017-05-10T08:18:48.260Z,115
2017-05-10T08:19:28.739Z,120
2017-05-10T08:20:09.220Z,150
2017-05-10T08:20:52.240Z,170
2017-05-10T08:21:32.687Z,175
2017-05-10T08:22:13.290Z,180
2017-05-10T08:22:53.787Z,150
2017-05-10T08:23:34.304Z,140
2017-05-10T08:24:14.799Z,165
2017-05-10T08:24:55.331Z,200
2017-05-10T08:25:35.796Z,235
2017-05-10T08:26:16.296Z,245
2017-05-10T08:26:56.790Z,250
2017-05-10T08:27:37.291Z,245
2017-05-10T08:28:17.810Z,245
2017-05-10T08:28:58.303Z,250
2017-05-10T08:29:38.788Z,275
2017-05-10T08:30:19.288Z,310
2017-05-10T08:30:59.893Z,360
2017-05-10T08:31:40.349Z,415
2017-05-10T08:32:20.822Z,455
2017-05-10T08:33:01.306Z,470
2017-05-10T08:33:41.868Z,485
2017-05-10T08:34:22.260Z,495
2017-05-10T08:35:02.792Z,500
2017-05-10T08:35:43.279Z,495
2017-05-10T08:36:23.821Z,495
2017-05-10T08:37:04.371Z,495
2017-05-10T08:37:44.901Z,500
2017-05-10T08:38:25.444Z,530
2017-05-10T08:39:05.956Z,565
2017-05-10T08:39:46.481Z,585
2017-05-10T08:40:27.089Z,590
2017-05-10T08:41:07.550Z,590
2017-05-10T08:41:48.142Z,600
2017-05-10T08:42:28.594Z,605
2017-05-10T08:43:09.123Z,615
2017-05-10T08:43:49.639Z,620
2017-05-10T08:44:30.190Z,615
2017-05-10T08:45:10.706Z,605
2017-05-10T08:45:51.189Z,570
2017-05-10T08:46:31.719Z,525
2017-05-10T08:47:12.200Z,480
2017-05-10T08:47:52.791Z,460
2017-05-10T08:48:33.283Z,475
2017-05-10T08:49:14.694Z,490
2017-05-10T08:49:55.231Z,485
2017-05-10T08:50:35.746Z,470
2017-05-10T08:51:16.241Z,450
2017-05-10T08:51:56.692Z,485
2017-05-10T08:52:37.200Z,490
2017-05-10T08:53:17.831Z,500
2017-05-10T08:53:58.451Z,505
2017-05-10T08:54:39.805Z,510
2017-05-10T08:55:20.298Z,505
2017-05-10T08:56:00.795Z,495
2017-05-10T08:56:41.354Z,495
2017-05-10T08:57:21.891Z,515
2017-05-10T08:58:02.505Z,510
2017-05-10T08:58:42.948Z,485
2017-05-10T08:59:23.459Z,445
2017-05-10T09:00:04.027Z,405
2017-05-10T09:00:44.478Z,365
2017-05-10T09:01:24.987Z,345
2017-05-10T09:02:05.475Z,330
2017-05-10T09:02:45.938Z,340
2017-05-10T09:03:26.477Z,365
2017-05-10T09:04:07.002Z,360
2017-05-10T09:04:47.497Z,375
2017-05-10T09:05:27.990Z,390
2017-05-10T09:06:08.484Z,355
2017-05-10T09:06:48.961Z,385
2017-05-10T09:07:29.499Z,455
2017-05-10T09:08:09.975Z,510
2017-05-10T09:08:50.468Z,515
2017-05-10T09:09:39.293Z,425
2017-05-10T09:10:26.935Z,320
2017-05-10T09:11:17.360Z,260
2017-05-10T09:12:06.897Z,260
2017-05-10T09:12:56.343Z,275
2017-05-10T09:13:43.899Z,240
2017-05-10T09:14:30.192Z,205
2017-05-10T09:15:15.951Z,180
2017-05-10T09:16:05.722Z,170
2017-05-10T09:16:55.157Z,155
2017-05-10T09:17:43.935Z,150
2017-05-10T09:18:32.462Z,150
2017-05-10T09:19:16.944Z,135
2017-05-10T09:20:01.411Z,130
2017-05-10T09:20:48.332Z,130
2017-05-10T09:21:33.179Z,125
2017-05-10T09:22:13.803Z,125
2017-05-10T09:22:54.235Z,125
2017-05-10T09:23:37.803Z,130
2017-05-10T09:24:23.430Z,145
2017-05-10T09:25:11.093Z,170
2017-05-10T09:25:56.421Z,200
2017-05-10T09:26:42.468Z,230
2017-05-10T09:27:30.507Z,250
2017-05-10T09:28:17.736Z,270
2017-05-10T09:29:03.943Z,305
2017-05-10T09:29:49.207Z,315
2017-05-10T09:30:37.295Z,310
2017-05-10T09:31:25.624Z,310
2017-05-10T09:32:12.615Z,305
2017-05-10T09:33:01.186Z,300
2017-05-10T09:33:47.788Z,275
2017-05-10T09:34:35.011Z,255
2017-05-10T09:35:20.543Z,245
2017-05-10T09:36:02.277Z,245
2017-05-10T09:36:42.750Z,240
2017-05-10T09:37:23.381Z,240
2017-05-10T09:38:03.770Z,250
2017-05-10T09:38:50.342Z,275
2017-05-10T09:39:35.889Z,310
2017-05-10T09:40:22.115Z,355
2017-05-10T09:41:08.964Z,390
2017-05-10T09:41:53.397Z,420
2017-05-10T09:42:39.666Z,435
2017-05-10T09:43:25.204Z,455